Aviation Digital Data Service (ADDS)

Output produced by METARs form (0353 UTC 26 June 2019)
found at http://www.aviationweather.gov/metar/data/
 
METAR text: KRVS 260253Z 17005KT 10SM CLR 28/21 A2996 RMK AO2 SLP147 LAST T02780211 53013
Conditions at: KRVS (TULSA , OK, US) observed 0253 UTC 26 June 2019
Temperature: 27.8°C (82°F)
Dewpoint: 21.1°C (70°F) [RH = 67%]
Pressure (altimeter): 29.96 inches Hg (1014.6 mb)
[Sea-level pressure: 1014.7 mb]
Winds: from the S (170 degrees) at 6 MPH (5 knots; 2.6 m/s)
Visibility: 10 or more miles (16+ km)
Ceiling: at least 12,000 feet AGL
Clouds: sky clear below 12,000 feet AGL
Weather: no significant weather observed at this time

METAR text: KRVS 260153Z AUTO 17006KT 10SM CLR 29/22 A2992 RMK AO2 SLP134 T02890217
Conditions at: KRVS (TULSA , OK, US) observed 0153 UTC 26 June 2019
Temperature: 28.9°C (84°F)
Dewpoint: 21.7°C (71°F) [RH = 65%]
Pressure (altimeter): 29.92 inches Hg (1013.3 mb)
[Sea-level pressure: 1013.4 mb]
Winds: from the S (170 degrees) at 7 MPH (6 knots; 3.1 m/s)
Visibility: 10 or more miles (16+ km)
Ceiling: at least 12,000 feet AGL
Clouds: sky clear below 12,000 feet AGL
Weather: automated observation with no human augmentation;
there may or may not be significant weather present at this time

METAR text: KRVS 260053Z AUTO 17007KT 10SM CLR 31/21 A2992 RMK AO2 SLP134 T03110206
Conditions at: KRVS (TULSA , OK, US) observed 0053 UTC 26 June 2019
Temperature: 31.1°C (88°F)
Dewpoint: 20.6°C (69°F) [RH = 54%]
Pressure (altimeter): 29.92 inches Hg (1013.3 mb)
[Sea-level pressure: 1013.4 mb]
Winds: from the S (170 degrees) at 8 MPH (7 knots; 3.6 m/s)
Visibility: 10 or more miles (16+ km)
Ceiling: at least 12,000 feet AGL
Clouds: sky clear below 12,000 feet AGL
Weather: automated observation with no human augmentation;
there may or may not be significant weather present at this time

METAR text: KRVS 252353Z AUTO 18009KT 10SM FEW047 32/21 A2992 RMK AO2 SLP134 T03170206 10328 20289 55011
Conditions at: KRVS (TULSA , OK, US) observed 2353 UTC 25 June 2019
Temperature: 31.7°C (89°F)
Dewpoint: 20.6°C (69°F) [RH = 52%]
Pressure (altimeter): 29.92 inches Hg (1013.3 mb)
[Sea-level pressure: 1013.4 mb]
Winds: from the S (180 degrees) at 10 MPH (9 knots; 4.6 m/s)
Visibility: 10 or more miles (16+ km)
Ceiling: at least 12,000 feet AGL
Clouds: few clouds at 4700 feet AGL
Weather: automated observation with no human augmentation;
there may or may not be significant weather present at this time

METAR text: KRVS 252253Z 18010KT 10SM SCT041 32/21 A2992 RMK AO2 SLP134 T03220211
Conditions at: KRVS (TULSA , OK, US) observed 2253 UTC 25 June 2019
Temperature: 32.2°C (90°F)
Dewpoint: 21.1°C (70°F) [RH = 52%]
Pressure (altimeter): 29.92 inches Hg (1013.3 mb)
[Sea-level pressure: 1013.4 mb]
Winds: from the S (180 degrees) at 12 MPH (10 knots; 5.1 m/s)
Visibility: 10 or more miles (16+ km)
Ceiling: at least 12,000 feet AGL
Clouds: scattered clouds at 4100 feet AGL
Weather: no significant weather observed at this time

METAR text: KRVS 252153Z 17010G14KT 10SM FEW039 SCT050 32/22 A2994 RMK AO2 SLP140 T03170222
Conditions at: KRVS (TULSA , OK, US) observed 2153 UTC 25 June 2019
Temperature: 31.7°C (89°F)
Dewpoint: 22.2°C (72°F) [RH = 57%]
Pressure (altimeter): 29.94 inches Hg (1014.0 mb)
[Sea-level pressure: 1014.0 mb]
Winds: from the S (170 degrees) at 12 MPH (10 knots; 5.1 m/s)
gusting to 16 MPH (14 knots; 7.2 m/s)
Visibility: 10 or more miles (16+ km)
Ceiling: at least 12,000 feet AGL
Clouds: few clouds at 3900 feet AGL
scattered clouds at 5000 feet AGL
Weather: no significant weather observed at this time

METAR text: KRVS 252053Z 18007KT 10SM SCT037 BKN048 32/22 A2995 RMK AO2 SLP145 T03170222 58014
Conditions at: KRVS (TULSA , OK, US) observed 2053 UTC 25 June 2019
Temperature: 31.7°C (89°F)
Dewpoint: 22.2°C (72°F) [RH = 57%]
Pressure (altimeter): 29.95 inches Hg (1014.3 mb)
[Sea-level pressure: 1014.5 mb]
Winds: from the S (180 degrees) at 8 MPH (7 knots; 3.6 m/s)
Visibility: 10 or more miles (16+ km)
Ceiling: 4800 feet AGL
Clouds: scattered clouds at 3700 feet AGL
broken clouds at 4800 feet AGL
Weather: no significant weather observed at this time

METAR text: KRVS 251953Z 15008KT 10SM BKN033 OVC045 31/22 A2998 RMK AO2 SLP154 T03060222
Conditions at: KRVS (TULSA , OK, US) observed 1953 UTC 25 June 2019
Temperature: 30.6°C (87°F)
Dewpoint: 22.2°C (72°F) [RH = 61%]
Pressure (altimeter): 29.98 inches Hg (1015.3 mb)
[Sea-level pressure: 1015.4 mb]
Winds: from the SSE (150 degrees) at 9 MPH (8 knots; 4.1 m/s)
Visibility: 10 or more miles (16+ km)
Ceiling: 3300 feet AGL
Clouds: broken clouds at 3300 feet AGL
overcast cloud deck at 4500 feet AGL
Weather: no significant weather observed at this time

METAR text: KRVS 251853Z VRB05KT 10SM SCT034 30/22 A2999 RMK AO2 SLP158 T03000222
Conditions at: KRVS (TULSA , OK, US) observed 1853 UTC 25 June 2019
Temperature: 30.0°C (86°F)
Dewpoint: 22.2°C (72°F) [RH = 63%]
Pressure (altimeter): 29.99 inches Hg (1015.7 mb)
[Sea-level pressure: 1015.8 mb]
Winds: variable direction winds at 6 MPH (5 knots; 2.6 m/s)
Visibility: 10 or more miles (16+ km)
Ceiling: at least 12,000 feet AGL
Clouds: scattered clouds at 3400 feet AGL
Weather: no significant weather observed at this time

METAR text: KRVS 251837Z 20008KT 10SM BKN033 29/22 A2999 RMK AO2 T02940217
Conditions at: KRVS (TULSA , OK, US) observed 1837 UTC 25 June 2019
Temperature: 29.4°C (85°F)
Dewpoint: 21.7°C (71°F) [RH = 63%]
Pressure (altimeter): 29.99 inches Hg (1015.7 mb)
Winds: from the SSW (200 degrees) at 9 MPH (8 knots; 4.1 m/s)
Visibility: 10 or more miles (16+ km)
Ceiling: 3300 feet AGL
Clouds: broken clouds at 3300 feet AGL
Weather: no significant weather observed at this time

METAR text: KRVS 251824Z 17007KT 10SM BKN029 BKN034 29/21 A2999 RMK AO2 T02890211
Conditions at: KRVS (TULSA , OK, US) observed 1824 UTC 25 June 2019
Temperature: 28.9°C (84°F)
Dewpoint: 21.1°C (70°F) [RH = 63%]
Pressure (altimeter): 29.99 inches Hg (1015.7 mb)
Winds: from the S (170 degrees) at 8 MPH (7 knots; 3.6 m/s)
Visibility: 10 or more miles (16+ km)
Ceiling: 2900 feet AGL
Clouds: broken clouds at 2900 feet AGL
broken clouds at 3400 feet AGL
Weather: no significant weather observed at this time

METAR text: KRVS 251815Z 17008KT 10SM SCT028 SCT034 BKN050 29/21 A2999 RMK AO2 T02890211
Conditions at: KRVS (TULSA , OK, US) observed 1815 UTC 25 June 2019
Temperature: 28.9°C (84°F)
Dewpoint: 21.1°C (70°F) [RH = 63%]
Pressure (altimeter): 29.99 inches Hg (1015.7 mb)
Winds: from the S (170 degrees) at 9 MPH (8 knots; 4.1 m/s)
Visibility: 10 or more miles (16+ km)
Ceiling: 5000 feet AGL
Clouds: scattered clouds at 2800 feet AGL
scattered clouds at 3400 feet AGL
broken clouds at 5000 feet AGL
Weather: no significant weather observed at this time

METAR text: KRVS 251807Z 19007KT 10SM BKN028 BKN050 29/22 A3000 RMK AO2 T02890217
Conditions at: KRVS (TULSA , OK, US) observed 1807 UTC 25 June 2019
Temperature: 28.9°C (84°F)
Dewpoint: 21.7°C (71°F) [RH = 65%]
Pressure (altimeter): 30.00 inches Hg (1016.0 mb)
Winds: from the S (190 degrees) at 8 MPH (7 knots; 3.6 m/s)
Visibility: 10 or more miles (16+ km)
Ceiling: 2800 feet AGL
Clouds: broken clouds at 2800 feet AGL
broken clouds at 5000 feet AGL
Weather: no significant weather observed at this time

METAR text: KRVS 251753Z 19008KT 10SM SCT028 BKN032 BKN050 29/21 A2999 RMK AO2 SLP160 T02890211 10289 20228 50003
Conditions at: KRVS (TULSA , OK, US) observed 1753 UTC 25 June 2019
Temperature: 28.9°C (84°F)
Dewpoint: 21.1°C (70°F) [RH = 63%]
Pressure (altimeter): 29.99 inches Hg (1015.7 mb)
[Sea-level pressure: 1016.0 mb]
Winds: from the S (190 degrees) at 9 MPH (8 knots; 4.1 m/s)
Visibility: 10 or more miles (16+ km)
Ceiling: 3200 feet AGL
Clouds: scattered clouds at 2800 feet AGL
broken clouds at 3200 feet AGL
broken clouds at 5000 feet AGL
Weather: no significant weather observed at this time

METAR text: KRVS 251739Z 18008KT 10SM BKN030 28/21 A3000 RMK AO2 T02830211
Conditions at: KRVS (TULSA , OK, US) observed 1739 UTC 25 June 2019
Temperature: 28.3°C (83°F)
Dewpoint: 21.1°C (70°F) [RH = 65%]
Pressure (altimeter): 30.00 inches Hg (1016.0 mb)
Winds: from the S (180 degrees) at 9 MPH (8 knots; 4.1 m/s)
Visibility: 10 or more miles (16+ km)
Ceiling: 3000 feet AGL
Clouds: broken clouds at 3000 feet AGL
Weather: no significant weather observed at this time

METAR text: KRVS 251653Z 18009KT 10SM OVC021 27/22 A3000 RMK AO2 SLP163 T02720217
Conditions at: KRVS (TULSA , OK, US) observed 1653 UTC 25 June 2019
Temperature: 27.2°C (81°F)
Dewpoint: 21.7°C (71°F) [RH = 72%]
Pressure (altimeter): 30.00 inches Hg (1016.0 mb)
[Sea-level pressure: 1016.3 mb]
Winds: from the S (180 degrees) at 10 MPH (9 knots; 4.6 m/s)
Visibility: 10 or more miles (16+ km)
Ceiling: 2100 feet AGL
Clouds: overcast cloud deck at 2100 feet AGL
Weather: no significant weather observed at this time

METAR text: KRVS 251553Z 19008KT 10SM OVC019 26/22 A2999 RMK AO2 SLP159 T02610217
Conditions at: KRVS (TULSA , OK, US) observed 1553 UTC 25 June 2019
Temperature: 26.1°C (79°F)
Dewpoint: 21.7°C (71°F) [RH = 77%]
Pressure (altimeter): 29.99 inches Hg (1015.7 mb)
[Sea-level pressure: 1015.9 mb]
Winds: from the S (190 degrees) at 9 MPH (8 knots; 4.1 m/s)
Visibility: 10 or more miles (16+ km)
Ceiling: 1900 feet AGL
Clouds: overcast cloud deck at 1900 feet AGL
Weather: no significant weather observed at this time

METAR text: KRVS 251453Z 18006KT 10SM BKN017 OVC022 26/21 A2998 RMK AO2 SLP157 T02560211 51010
Conditions at: KRVS (TULSA , OK, US) observed 1453 UTC 25 June 2019
Temperature: 25.6°C (78°F)
Dewpoint: 21.1°C (70°F) [RH = 76%]
Pressure (altimeter): 29.98 inches Hg (1015.3 mb)
[Sea-level pressure: 1015.7 mb]
Winds: from the S (180 degrees) at 7 MPH (6 knots; 3.1 m/s)
Visibility: 10 or more miles (16+ km)
Ceiling: 1700 feet AGL
Clouds: broken clouds at 1700 feet AGL
overcast cloud deck at 2200 feet AGL
Weather: no significant weather observed at this time

METAR text: KRVS 251435Z 20007KT 10SM BKN017 OVC022 25/21 A2999 RMK AO2 T02500211
Conditions at: KRVS (TULSA , OK, US) observed 1435 UTC 25 June 2019
Temperature: 25.0°C (77°F)
Dewpoint: 21.1°C (70°F) [RH = 79%]
Pressure (altimeter): 29.99 inches Hg (1015.7 mb)
Winds: from the SSW (200 degrees) at 8 MPH (7 knots; 3.6 m/s)
Visibility: 10 or more miles (16+ km)
Ceiling: 1700 feet AGL
Clouds: broken clouds at 1700 feet AGL
overcast cloud deck at 2200 feet AGL
Weather: no significant weather observed at this time

METAR text: KRVS 251401Z 20006KT 10SM BKN012 BKN019 24/21 A2999 RMK AO2 T02390211
Conditions at: KRVS (TULSA , OK, US) observed 1401 UTC 25 June 2019
Temperature: 23.9°C (75°F)
Dewpoint: 21.1°C (70°F) [RH = 84%]
Pressure (altimeter): 29.99 inches Hg (1015.7 mb)
Winds: from the SSW (200 degrees) at 7 MPH (6 knots; 3.1 m/s)
Visibility: 10 or more miles (16+ km)
Ceiling: 1200 feet AGL
Clouds: broken clouds at 1200 feet AGL
broken clouds at 1900 feet AGL
Weather: no significant weather observed at this time

METAR text: KRVS 251353Z 19006KT 10SM FEW010 SCT019 24/21 A2998 RMK AO2 SLP157 T02390211
Conditions at: KRVS (TULSA , OK, US) observed 1353 UTC 25 June 2019
Temperature: 23.9°C (75°F)
Dewpoint: 21.1°C (70°F) [RH = 84%]
Pressure (altimeter): 29.98 inches Hg (1015.3 mb)
[Sea-level pressure: 1015.7 mb]
Winds: from the S (190 degrees) at 7 MPH (6 knots; 3.1 m/s)
Visibility: 10 or more miles (16+ km)
Ceiling: at least 12,000 feet AGL
Clouds: few clouds at 1000 feet AGL
scattered clouds at 1900 feet AGL
Weather: no significant weather observed at this time

METAR text: KRVS 251253Z 19006KT 10SM FEW008 23/21 A2997 RMK AO2 SLP152 T02280206
Conditions at: KRVS (TULSA , OK, US) observed 1253 UTC 25 June 2019
Temperature: 22.8°C (73°F)
Dewpoint: 20.6°C (69°F) [RH = 87%]
Pressure (altimeter): 29.97 inches Hg (1015.0 mb)
[Sea-level pressure: 1015.2 mb]
Winds: from the S (190 degrees) at 7 MPH (6 knots; 3.1 m/s)
Visibility: 10 or more miles (16+ km)
Ceiling: at least 12,000 feet AGL
Clouds: few clouds at 800 feet AGL
Weather: no significant weather observed at this time

METAR text: KRVS 251153Z 00000KT 7SM CLR 19/18 A2995 RMK AO2 SLP146 T01940183 10200 20189 53013
Conditions at: KRVS (TULSA , OK, US) observed 1153 UTC 25 June 2019
Temperature: 19.4°C (67°F)
Dewpoint: 18.3°C (65°F) [RH = 93%]
Pressure (altimeter): 29.95 inches Hg (1014.3 mb)
[Sea-level pressure: 1014.6 mb]
Winds: calm
Visibility: 7 miles (11 km)
Ceiling: at least 12,000 feet AGL
Clouds: sky clear below 12,000 feet AGL
Weather: no significant weather observed at this time

METAR text: KRVS 251053Z AUTO 00000KT 10SM CLR 19/18 A2994 RMK AO2 SLP142 T01940183
Conditions at: KRVS (TULSA , OK, US) observed 1053 UTC 25 June 2019
Temperature: 19.4°C (67°F)
Dewpoint: 18.3°C (65°F) [RH = 93%]
Pressure (altimeter): 29.94 inches Hg (1014.0 mb)
[Sea-level pressure: 1014.2 mb]
Winds: calm
Visibility: 10 or more miles (16+ km)
Ceiling: at least 12,000 feet AGL
Clouds: sky clear below 12,000 feet AGL
Weather: automated observation with no human augmentation;
there may or may not be significant weather present at this time

METAR text: KRVS 250953Z AUTO 00000KT 10SM CLR 19/18 A2992 RMK AO2 SLP135 T01940183
Conditions at: KRVS (TULSA , OK, US) observed 0953 UTC 25 June 2019
Temperature: 19.4°C (67°F)
Dewpoint: 18.3°C (65°F) [RH = 93%]
Pressure (altimeter): 29.92 inches Hg (1013.3 mb)
[Sea-level pressure: 1013.5 mb]
Winds: calm
Visibility: 10 or more miles (16+ km)
Ceiling: at least 12,000 feet AGL
Clouds: sky clear below 12,000 feet AGL
Weather: automated observation with no human augmentation;
there may or may not be significant weather present at this time

METAR text: KRVS 250853Z AUTO 00000KT 10SM CLR 19/18 A2991 RMK AO2 SLP133 T01940183 57003
Conditions at: KRVS (TULSA , OK, US) observed 0853 UTC 25 June 2019
Temperature: 19.4°C (67°F)
Dewpoint: 18.3°C (65°F) [RH = 93%]
Pressure (altimeter): 29.91 inches Hg (1013.0 mb)
[Sea-level pressure: 1013.3 mb]
Winds: calm
Visibility: 10 or more miles (16+ km)
Ceiling: at least 12,000 feet AGL
Clouds: sky clear below 12,000 feet AGL
Weather: automated observation with no human augmentation;
there may or may not be significant weather present at this time

METAR text: KRVS 250753Z AUTO 00000KT 10SM CLR 19/18 A2992 RMK AO2 SLP134 T01940183
Conditions at: KRVS (TULSA , OK, US) observed 0753 UTC 25 June 2019
Temperature: 19.4°C (67°F)
Dewpoint: 18.3°C (65°F) [RH = 93%]
Pressure (altimeter): 29.92 inches Hg (1013.3 mb)
[Sea-level pressure: 1013.4 mb]
Winds: calm
Visibility: 10 or more miles (16+ km)
Ceiling: at least 12,000 feet AGL
Clouds: sky clear below 12,000 feet AGL
Weather: automated observation with no human augmentation;
there may or may not be significant weather present at this time

METAR text: KRVS 250653Z AUTO 00000KT 10SM CLR 19/18 A2992 RMK AO2 SLP135 T01940183
Conditions at: KRVS (TULSA , OK, US) observed 0653 UTC 25 June 2019
Temperature: 19.4°C (67°F)
Dewpoint: 18.3°C (65°F) [RH = 93%]
Pressure (altimeter): 29.92 inches Hg (1013.3 mb)
[Sea-level pressure: 1013.5 mb]
Winds: calm
Visibility: 10 or more miles (16+ km)
Ceiling: at least 12,000 feet AGL
Clouds: sky clear below 12,000 feet AGL
Weather: automated observation with no human augmentation;
there may or may not be significant weather present at this time

METAR text: KRVS 250553Z AUTO 00000KT 10SM CLR 20/18 A2992 RMK AO2 SLP136 T02000183 10289 20200 402890194 50005
Conditions at: KRVS (TULSA , OK, US) observed 0553 UTC 25 June 2019
Temperature: 20.0°C (68°F)
Dewpoint: 18.3°C (65°F) [RH = 90%]
Pressure (altimeter): 29.92 inches Hg (1013.3 mb)
[Sea-level pressure: 1013.6 mb]
Winds: calm
Visibility: 10 or more miles (16+ km)
Ceiling: at least 12,000 feet AGL
Clouds: sky clear below 12,000 feet AGL
Weather: automated observation with no human augmentation;
there may or may not be significant weather present at this time

METAR text: KRVS 250453Z AUTO 00000KT 10SM CLR 20/18 A2993 RMK AO2 SLP137 T02000183
Conditions at: KRVS (TULSA , OK, US) observed 0453 UTC 25 June 2019
Temperature: 20.0°C (68°F)
Dewpoint: 18.3°C (65°F) [RH = 90%]
Pressure (altimeter): 29.93 inches Hg (1013.6 mb)
[Sea-level pressure: 1013.7 mb]
Winds: calm
Visibility: 10 or more miles (16+ km)
Ceiling: at least 12,000 feet AGL
Clouds: sky clear below 12,000 feet AGL
Weather: automated observation with no human augmentation;
there may or may not be significant weather present at this time

METAR text: KRVS 250353Z AUTO 00000KT 10SM CLR 21/18 A2993 RMK AO2 SLP137 T02060183
Conditions at: KRVS (TULSA , OK, US) observed 0353 UTC 25 June 2019
Temperature: 20.6°C (69°F)
Dewpoint: 18.3°C (65°F) [RH = 87%]
Pressure (altimeter): 29.93 inches Hg (1013.6 mb)
[Sea-level pressure: 1013.7 mb]
Winds: calm
Visibility: 10 or more miles (16+ km)
Ceiling: at least 12,000 feet AGL
Clouds: sky clear below 12,000 feet AGL
Weather: automated observation with no human augmentation;
there may or may not be significant weather present at this time

METAR text: KRVS 250253Z 00000KT 10SM CLR 21/18 A2991 RMK AO2 SLP131 LAST T02110183 53010
Conditions at: KRVS (TULSA , OK, US) observed 0253 UTC 25 June 2019
Temperature: 21.1°C (70°F)
Dewpoint: 18.3°C (65°F) [RH = 84%]
Pressure (altimeter): 29.91 inches Hg (1013.0 mb)
[Sea-level pressure: 1013.1 mb]
Winds: calm
Visibility: 10 or more miles (16+ km)
Ceiling: at least 12,000 feet AGL
Clouds: sky clear below 12,000 feet AGL
Weather: no significant weather observed at this time

METAR text: KRVS 250153Z 00000KT 10SM CLR 22/18 A2989 RMK AO2 SLP126 T02220178
Conditions at: KRVS (TULSA , OK, US) observed 0153 UTC 25 June 2019
Temperature: 22.2°C (72°F)
Dewpoint: 17.8°C (64°F) [RH = 76%]
Pressure (altimeter): 29.89 inches Hg (1012.3 mb)
[Sea-level pressure: 1012.6 mb]
Winds: calm
Visibility: 10 or more miles (16+ km)
Ceiling: at least 12,000 feet AGL
Clouds: sky clear below 12,000 feet AGL
Weather: no significant weather observed at this time

METAR text: KRVS 250053Z 17003KT 10SM CLR 27/17 A2988 RMK AO2 SLP122 T02670167
Conditions at: KRVS (TULSA , OK, US) observed 0053 UTC 25 June 2019
Temperature: 26.7°C (80°F)
Dewpoint: 16.7°C (62°F) [RH = 54%]
Pressure (altimeter): 29.88 inches Hg (1011.9 mb)
[Sea-level pressure: 1012.2 mb]
Winds: from the S (170 degrees) at 3 MPH (3 knots; 1.5 m/s)
Visibility: 10 or more miles (16+ km)
Ceiling: at least 12,000 feet AGL
Clouds: sky clear below 12,000 feet AGL
Weather: no significant weather observed at this time

METAR text: KRVS 242353Z 00000KT 10SM CLR 29/16 A2988 RMK AO2 SLP121 T02890161 10289 20267 58009
Conditions at: KRVS (TULSA , OK, US) observed 2353 UTC 24 June 2019
Temperature: 28.9°C (84°F)
Dewpoint: 16.1°C (61°F) [RH = 46%]
Pressure (altimeter): 29.88 inches Hg (1011.9 mb)
[Sea-level pressure: 1012.1 mb]
Winds: calm
Visibility: 10 or more miles (16+ km)
Ceiling: at least 12,000 feet AGL
Clouds: sky clear below 12,000 feet AGL
Weather: no significant weather observed at this time

METAR text: KRVS 242253Z 00000KT 10SM CLR 28/16 A2989 RMK AO2 SLP124 T02830161
Conditions at: KRVS (TULSA , OK, US) observed 2253 UTC 24 June 2019
Temperature: 28.3°C (83°F)
Dewpoint: 16.1°C (61°F) [RH = 48%]
Pressure (altimeter): 29.89 inches Hg (1012.3 mb)
[Sea-level pressure: 1012.4 mb]
Winds: calm
Visibility: 10 or more miles (16+ km)
Ceiling: at least 12,000 feet AGL
Clouds: sky clear below 12,000 feet AGL
Weather: no significant weather observed at this time

METAR text: KRVS 242153Z 01003KT 10SM CLR 29/16 A2990 RMK AO2 SLP128 T02890161
Conditions at: KRVS (TULSA , OK, US) observed 2153 UTC 24 June 2019
Temperature: 28.9°C (84°F)
Dewpoint: 16.1°C (61°F) [RH = 46%]
Pressure (altimeter): 29.90 inches Hg (1012.6 mb)
[Sea-level pressure: 1012.8 mb]
Winds: from the N (10 degrees) at 3 MPH (3 knots; 1.5 m/s)
Visibility: 10 or more miles (16+ km)
Ceiling: at least 12,000 feet AGL
Clouds: sky clear below 12,000 feet AGL
Weather: no significant weather observed at this time

METAR text: KRVS 242053Z VRB03KT 10SM CLR 28/16 A2991 RMK AO2 SLP130 T02830156 58008
Conditions at: KRVS (TULSA , OK, US) observed 2053 UTC 24 June 2019
Temperature: 28.3°C (83°F)
Dewpoint: 15.6°C (60°F) [RH = 46%]
Pressure (altimeter): 29.91 inches Hg (1013.0 mb)
[Sea-level pressure: 1013.0 mb]
Winds: variable direction winds at 3 MPH (3 knots; 1.5 m/s)
Visibility: 10 or more miles (16+ km)
Ceiling: at least 12,000 feet AGL
Clouds: sky clear below 12,000 feet AGL
Weather: no significant weather observed at this time

METAR text: KRVS 241953Z VRB05KT 10SM CLR 28/16 A2992 RMK AO2 SLP134 T02780156
Conditions at: KRVS (TULSA , OK, US) observed 1953 UTC 24 June 2019
Temperature: 27.8°C (82°F)
Dewpoint: 15.6°C (60°F) [RH = 47%]
Pressure (altimeter): 29.92 inches Hg (1013.3 mb)
[Sea-level pressure: 1013.4 mb]
Winds: variable direction winds at 6 MPH (5 knots; 2.6 m/s)
Visibility: 10 or more miles (16+ km)
Ceiling: at least 12,000 feet AGL
Clouds: sky clear below 12,000 feet AGL
Weather: no significant weather observed at this time

METAR text: KRVS 241853Z VRB03KT 10SM CLR 27/15 A2992 RMK AO2 SLP136 T02720150
Conditions at: KRVS (TULSA , OK, US) observed 1853 UTC 24 June 2019
Temperature: 27.2°C (81°F)
Dewpoint: 15.0°C (59°F) [RH = 47%]
Pressure (altimeter): 29.92 inches Hg (1013.3 mb)
[Sea-level pressure: 1013.6 mb]
Winds: variable direction winds at 3 MPH (3 knots; 1.5 m/s)
Visibility: 10 or more miles (16+ km)
Ceiling: at least 12,000 feet AGL
Clouds: sky clear below 12,000 feet AGL
Weather: no significant weather observed at this time

METAR text: KRVS 241753Z 33007KT 10SM FEW038 27/17 A2993 RMK AO2 SLP138 T02670167 10267 20206 51003
Conditions at: KRVS (TULSA , OK, US) observed 1753 UTC 24 June 2019
Temperature: 26.7°C (80°F)
Dewpoint: 16.7°C (62°F) [RH = 54%]
Pressure (altimeter): 29.93 inches Hg (1013.6 mb)
[Sea-level pressure: 1013.8 mb]
Winds: from the NNW (330 degrees) at 8 MPH (7 knots; 3.6 m/s)
Visibility: 10 or more miles (16+ km)
Ceiling: at least 12,000 feet AGL
Clouds: few clouds at 3800 feet AGL
Weather: no significant weather observed at this time

METAR text: KRVS 241653Z 26005KT 10SM SCT034 25/17 A2993 RMK AO2 SLP138 T02500172
Conditions at: KRVS (TULSA , OK, US) observed 1653 UTC 24 June 2019
Temperature: 25.0°C (77°F)
Dewpoint: 17.2°C (63°F) [RH = 62%]
Pressure (altimeter): 29.93 inches Hg (1013.6 mb)
[Sea-level pressure: 1013.8 mb]
Winds: from the W (260 degrees) at 6 MPH (5 knots; 2.6 m/s)
Visibility: 10 or more miles (16+ km)
Ceiling: at least 12,000 feet AGL
Clouds: scattered clouds at 3400 feet AGL
Weather: no significant weather observed at this time

Forecast for: KRVS (TULSA , OK, US)
Text: KRVS 252320Z 2600/2624 17010G14KT P6SM FEW040
Forecast period: 0000 to 0200 UTC 26 June 2019
Forecast type: FROM: standard forecast or significant change
Winds: from the S (170 degrees) at 12 MPH (10 knots; 5.1 m/s)
gusting to 16 MPH (14 knots; 7.2 m/s)
Visibility: 6 or more miles 10+ km)
Ceiling: at least 12,000 feet AGL
Clouds: few clouds at 4000 feet AGL
Weather: no significant weather forecast for this period
Text: FM260200 VRB03KT P6SM SCT250
Forecast period: 0200 to 1600 UTC 26 June 2019
Forecast type: FROM: standard forecast or significant change
Winds: variable direction winds at 3 MPH (3 knots; 1.5 m/s)
Visibility: 6 or more miles 10+ km)
Ceiling: at least 12,000 feet AGL
Clouds: scattered clouds at 25000 feet AGL
Weather: no significant weather forecast for this period
Text: FM261600 19011G18KT P6SM FEW040 SCT250
Forecast period: 1600 UTC 26 June 2019 to 0000 UTC 27 June 2019
Forecast type: FROM: standard forecast or significant change
Winds: from the S (190 degrees) at 13 MPH (11 knots; 5.7 m/s)
gusting to 21 MPH (18 knots; 9.3 m/s)
Visibility: 6 or more miles 10+ km)
Ceiling: at least 12,000 feet AGL
Clouds: few clouds at 4000 feet AGL
scattered clouds at 25000 feet AGL
Weather: no significant weather forecast for this period